Time;durP1;ratioP1;P1;durP2;ratioP2;P2;SDS_P1;SDS_P2;PMS_P1;PMS_P2;Temp;Humidity;BMP_temperature;BMP_pressure;BME280_temperature;BME280_humidity;BME280_pressure;Samples;Min_cycle;Max_cycle;Signal;HPM_P1;HPM_P2
2022/04/03 00:01:10;;;;;;;6.03;5.43;;;;;;;;;;5017289;28;20030;-60
2022/04/03 00:03:36;;;;;;;6.25;5.65;;;;;;;;;;5017927;28;20229;-62
2022/04/03 00:06:02;;;;;;;5.65;5.15;;;;;;;;;;5011595;28;20091;-61
2022/04/03 00:08:28;;;;;;;5.70;5.20;;;;;;;;;;5026081;28;20036;-61
2022/04/03 00:10:54;;;;;;;5.40;4.90;;;;;;;;;;5027072;28;20021;-61
2022/04/03 00:13:20;;;;;;;5.15;4.68;;;;;;;;;;5022068;28;20390;-62
2022/04/03 00:15:46;;;;;;;7.85;5.18;;;;;;;;;;5018030;28;20036;-61
2022/04/03 00:18:11;;;;;;;5.78;5.28;;;;;;;;;;5020431;28;20441;-61
2022/04/03 00:20:38;;;;;;;5.80;5.30;;;;;;;;;;5027346;28;20065;-61
2022/04/03 00:23:04;;;;;;;6.15;5.55;;;;;;;;;;5022353;28;20056;-61
2022/04/03 00:25:30;;;;;;;5.60;5.10;;;;;;;;;;5023253;28;20042;-61
2022/04/03 00:27:55;;;;;;;5.75;5.22;;;;;;;;;;5019428;28;20411;-63
2022/04/03 00:30:21;;;;;;;5.72;5.15;;;;;;;;;;5013297;28;20129;-61
2022/04/03 00:32:47;;;;;;;5.65;5.15;;;;;;;;;;5021621;28;20037;-62
2022/04/03 00:35:13;;;;;;;7.88;5.22;;;;;;;;;;5022907;28;20022;-61
2022/04/03 00:37:39;;;;;;;5.93;5.43;;;;;;;;;;5023937;28;20037;-62
2022/04/03 00:40:05;;;;;;;5.63;5.13;;;;;;;;;;5030168;28;20044;-61
2022/04/03 00:42:36;;;;;;;6.28;5.72;;;;;;;;;;5029956;28;20453;-62
2022/04/03 00:45:03;;;;;;;5.88;5.40;;;;;;;;;;5017183;28;20057;-61
2022/04/03 00:47:30;;;;;;;5.45;4.95;;;;;;;;;;5021682;28;20513;-62
2022/04/03 00:49:56;;;;;;;5.82;5.32;;;;;;;;;;5020666;28;20057;-62
2022/04/03 00:52:23;;;;;;;5.30;4.90;;;;;;;;;;5017758;28;20489;-62
2022/04/03 00:54:49;;;;;;;5.90;5.40;;;;;;;;;;5016329;28;20033;-62
2022/04/03 00:57:14;;;;;;;5.93;5.38;;;;;;;;;;5015303;28;20040;-62
2022/04/03 00:59:41;;;;;;;5.05;4.65;;;;;;;;;;5025754;28;20460;-62
2022/04/03 01:02:08;;;;;;;5.50;5.07;;;;;;;;;;5020619;28;20104;-61
2022/04/03 01:04:39;;;;;;;5.32;4.93;;;;;;;;;;5019034;28;20053;-61
2022/04/03 01:07:06;;;;;;;5.65;5.15;;;;;;;;;;5016492;28;20103;-62
2022/04/03 01:09:32;;;;;;;7.43;5.45;;;;;;;;;;5015256;28;20438;-62
2022/04/03 01:11:58;;;;;;;5.65;5.07;;;;;;;;;;5018331;28;20088;-62
2022/04/03 01:14:31;;;;;;;5.88;5.38;;;;;;;;;;5024236;28;20022;-62
2022/04/03 01:16:57;;;;;;;5.80;5.20;;;;;;;;;;5014620;28;20037;-62
2022/04/03 01:19:23;;;;;;;8.70;6.00;;;;;;;;;;5036785;28;20028;-62
2022/04/03 01:21:49;;;;;;;6.47;5.68;;;;;;;;;;5019104;28;20025;-61
2022/04/03 01:24:19;;;;;;;6.80;5.95;;;;;;;;;;5017676;28;20032;-62
2022/04/03 01:26:45;;;;;;;6.22;5.72;;;;;;;;;;5026565;28;20041;-62
2022/04/03 01:29:11;;;;;;;6.32;5.72;;;;;;;;;;5026398;28;20037;-61
2022/04/03 01:31:36;;;;;;;6.65;5.93;;;;;;;;;;5024652;28;20060;-62
2022/04/03 01:34:02;;;;;;;6.65;5.88;;;;;;;;;;5023498;28;20118;-62
2022/04/03 01:36:28;;;;;;;9.38;6.07;;;;;;;;;;5020106;28;20725;-62
2022/04/03 01:38:54;;;;;;;6.85;6.25;;;;;;;;;;5023994;28;20038;-62
2022/04/03 01:41:19;;;;;;;6.90;6.30;;;;;;;;;;5021258;28;20038;-62
2022/04/03 01:43:45;;;;;;;6.32;5.72;;;;;;;;;;5019555;28;20026;-62
2022/04/03 01:46:11;;;;;;;6.47;5.88;;;;;;;;;;5027817;28;20060;-62
2022/04/03 01:48:36;;;;;;;6.38;5.78;;;;;;;;;;5027282;28;20026;-62
2022/04/03 01:51:02;;;;;;;5.97;5.47;;;;;;;;;;5016884;28;20030;-62
2022/04/03 01:53:28;;;;;;;6.72;6.13;;;;;;;;;;5023516;28;20168;-62
2022/04/03 01:55:58;;;;;;;9.10;6.18;;;;;;;;;;5025208;28;20036;-62
2022/04/03 01:58:24;;;;;;;6.30;5.80;;;;;;;;;;5024630;28;20032;-62
2022/04/03 02:00:50;;;;;;;6.40;5.72;;;;;;;;;;5016989;28;20487;-62
2022/04/03 02:03:16;;;;;;;6.00;5.50;;;;;;;;;;5020304;28;20041;-62
2022/04/03 02:05:41;;;;;;;6.22;5.63;;;;;;;;;;5024774;28;20060;-62
2022/04/03 02:08:07;;;;;;;8.68;5.60;;;;;;;;;;5023169;28;20026;-62
2022/04/03 02:10:33;;;;;;;6.03;5.40;;;;;;;;;;5024276;28;20485;-62
2022/04/03 02:12:58;;;;;;;5.82;5.32;;;;;;;;;;5024742;28;20492;-62
2022/04/03 02:15:24;;;;;;;5.47;4.97;;;;;;;;;;5020833;28;20084;-62
2022/04/03 02:17:50;;;;;;;5.82;5.32;;;;;;;;;;5024447;28;20025;-62
2022/04/03 02:20:16;;;;;;;5.68;5.05;;;;;;;;;;5025657;28;20034;-62
2022/04/03 02:22:42;;;;;;;7.40;5.65;;;;;;;;;;5021668;28;20541;-62
2022/04/03 02:25:11;;;;;;;4.88;4.47;;;;;;;;;;5022045;28;20042;-62
2022/04/03 02:27:38;;;;;;;5.28;4.78;;;;;;;;;;5018285;28;20394;-62
2022/04/03 02:30:08;;;;;;;5.28;4.78;;;;;;;;;;5015484;28;20102;-62
2022/04/03 02:32:36;;;;;;;5.30;4.80;;;;;;;;;;5020063;28;20572;-61
2022/04/03 02:35:03;;;;;;;5.38;4.88;;;;;;;;;;5017772;28;20037;-62
2022/04/03 02:37:29;;;;;;;4.53;4.13;;;;;;;;;;5020867;28;20040;-62
2022/04/03 02:39:55;;;;;;;5.00;4.50;;;;;;;;;;5022582;28;20030;-62
2022/04/03 02:42:20;;;;;;;6.55;4.68;;;;;;;;;;5029898;28;20045;-62
2022/04/03 02:44:46;;;;;;;5.10;4.60;;;;;;;;;;5029270;28;20026;-62
2022/04/03 02:47:12;;;;;;;4.70;4.30;;;;;;;;;;5023241;28;20044;-62
2022/04/03 02:49:38;;;;;;;4.35;3.95;;;;;;;;;;5024014;28;20034;-62
2022/04/03 02:52:03;;;;;;;4.40;4.07;;;;;;;;;;5019045;28;20064;-62
2022/04/03 02:54:30;;;;;;;4.68;4.28;;;;;;;;;;5015116;28;20596;-62
2022/04/03 02:56:56;;;;;;;5.28;3.95;;;;;;;;;;5022239;28;20046;-62
2022/04/03 02:59:22;;;;;;;4.45;4.15;;;;;;;;;;5021199;28;20717;-62
2022/04/03 03:01:48;;;;;;;4.00;3.70;;;;;;;;;;5024789;28;20034;-63
2022/04/03 03:04:14;;;;;;;4.85;4.43;;;;;;;;;;5023938;28;20481;-62
2022/04/03 03:06:40;;;;;;;4.53;4.13;;;;;;;;;;5014052;28;20045;-62
2022/04/03 03:09:06;;;;;;;3.80;3.50;;;;;;;;;;5019749;28;20939;-63
2022/04/03 03:11:32;;;;;;;6.65;4.47;;;;;;;;;;5016645;28;20518;-63
2022/04/03 03:13:58;;;;;;;4.88;4.20;;;;;;;;;;5022551;28;20061;-62
2022/04/03 03:16:23;;;;;;;4.07;3.70;;;;;;;;;;5031611;28;20095;-62
2022/04/03 03:18:49;;;;;;;4.43;4.03;;;;;;;;;;5023280;28;20033;-63
2022/04/03 03:21:15;;;;;;;4.10;3.75;;;;;;;;;;5022519;28;20029;-61
2022/04/03 03:23:41;;;;;;;4.20;3.90;;;;;;;;;;5027437;28;20029;-62
2022/04/03 03:26:08;;;;;;;4.28;3.90;;;;;;;;;;5026078;28;20034;-62
2022/04/03 03:28:34;;;;;;;4.30;4.00;;;;;;;;;;5018659;28;20449;-62
2022/04/03 03:31:00;;;;;;;3.90;3.60;;;;;;;;;;5022786;28;20078;-62
2022/04/03 03:33:26;;;;;;;3.95;3.63;;;;;;;;;;5018921;28;20108;-63
2022/04/03 03:35:51;;;;;;;4.05;3.75;;;;;;;;;;5026690;28;20057;-63
2022/04/03 03:38:17;;;;;;;7.95;3.75;;;;;;;;;;5020550;28;20505;-61
2022/04/03 03:40:44;;;;;;;4.10;3.70;;;;;;;;;;5020560;28;20425;-62
2022/04/03 03:43:09;;;;;;;4.10;3.80;;;;;;;;;;5018442;28;20387;-61
2022/04/03 03:45:36;;;;;;;4.35;3.78;;;;;;;;;;5025073;28;20040;-62
2022/04/03 03:48:01;;;;;;;3.70;3.40;;;;;;;;;;5020040;28;20061;-63
2022/04/03 03:50:27;;;;;;;3.83;3.53;;;;;;;;;;5020153;28;20080;-63
2022/04/03 03:52:53;;;;;;;4.00;3.70;;;;;;;;;;5021150;28;20381;-63
2022/04/03 03:55:19;;;;;;;4.07;3.63;;;;;;;;;;5016082;28;20377;-63
2022/04/03 03:57:45;;;;;;;4.10;3.70;;;;;;;;;;5017655;28;20106;-63
2022/04/03 04:00:11;;;;;;;4.10;3.80;;;;;;;;;;5022684;28;20830;-63
2022/04/03 04:02:37;;;;;;;3.85;3.50;;;;;;;;;;5019461;28;20140;-63
2022/04/03 04:05:04;;;;;;;3.50;3.30;;;;;;;;;;5012723;28;20156;-63
2022/04/03 04:07:41;;;;;;;3.80;3.50;;;;;;;;;;5019990;28;20378;-63
2022/04/03 04:10:08;;;;;;;3.95;3.45;;;;;;;;;;5014824;28;20038;-62
2022/04/03 04:12:34;;;;;;;5.00;3.38;;;;;;;;;;5013439;28;20481;-62
2022/04/03 04:15:03;;;;;;;3.78;3.47;;;;;;;;;;5017672;28;20068;-63
2022/04/03 04:17:38;;;;;;;3.60;3.30;;;;;;;;;;5024861;28;20075;-63
2022/04/03 04:20:11;;;;;;;3.80;3.50;;;;;;;;;;5018678;28;20034;-63
2022/04/03 04:22:37;;;;;;;3.80;3.50;;;;;;;;;;5022577;28;20513;-63
2022/04/03 04:25:04;;;;;;;3.67;3.38;;;;;;;;;;5018755;28;20059;-62
2022/04/03 04:27:30;;;;;;;3.30;3.10;;;;;;;;;;5014283;28;20034;-63
2022/04/03 04:29:56;;;;;;;5.10;3.45;;;;;;;;;;5015586;28;20088;-63
2022/04/03 04:32:21;;;;;;;3.80;3.50;;;;;;;;;;5020570;28;20073;-63
2022/04/03 04:34:50;;;;;;;3.33;3.03;;;;;;;;;;5019619;28;20050;-62
2022/04/03 04:37:17;;;;;;;3.55;3.25;;;;;;;;;;5017497;28;20037;-63
2022/04/03 04:39:43;;;;;;;3.55;3.25;;;;;;;;;;5016792;28;20500;-62
2022/04/03 04:42:09;;;;;;;3.83;3.42;;;;;;;;;;5021260;28;20563;-63
2022/04/03 04:44:35;;;;;;;3.47;3.17;;;;;;;;;;5020796;28;20029;-63
2022/04/03 04:47:02;;;;;;;3.60;3.40;;;;;;;;;;5022467;28;20452;-63
2022/04/03 04:49:28;;;;;;;4.10;3.70;;;;;;;;;;5029028;28;20095;-63
2022/04/03 04:51:54;;;;;;;5.28;3.53;;;;;;;;;;5019669;28;20061;-62
2022/04/03 04:54:19;;;;;;;4.15;3.67;;;;;;;;;;5016850;28;20045;-63
2022/04/03 04:56:46;;;;;;;4.55;4.05;;;;;;;;;;5023594;28;20121;-63
2022/04/03 04:59:11;;;;;;;3.70;3.40;;;;;;;;;;5018829;28;20527;-62
2022/04/03 05:01:39;;;;;;;5.25;3.83;;;;;;;;;;5018649;28;20038;-63
2022/04/03 05:04:05;;;;;;;3.58;3.28;;;;;;;;;;5017347;28;20658;-63
2022/04/03 05:06:32;;;;;;;4.50;4.10;;;;;;;;;;5015976;28;20060;-63
2022/04/03 05:08:59;;;;;;;5.03;3.90;;;;;;;;;;5023616;28;20038;-63
2022/04/03 05:11:25;;;;;;;6.18;3.88;;;;;;;;;;5016461;28;20061;-63
2022/04/03 05:13:51;;;;;;;4.07;3.78;;;;;;;;;;5019755;28;20037;-62
2022/04/03 05:16:17;;;;;;;3.95;3.60;;;;;;;;;;5022869;28;20041;-63
2022/04/03 05:18:43;;;;;;;5.50;3.65;;;;;;;;;;5022370;28;20457;-63
2022/04/03 05:21:10;;;;;;;4.00;3.70;;;;;;;;;;5022074;28;20040;-64
2022/04/03 05:23:37;;;;;;;3.90;3.60;;;;;;;;;;5016432;28;20029;-63
2022/04/03 05:26:03;;;;;;;5.55;3.72;;;;;;;;;;5023827;28;20117;-63
2022/04/03 05:28:30;;;;;;;6.38;3.78;;;;;;;;;;5022627;28;20057;-63
2022/04/03 05:30:55;;;;;;;3.95;3.55;;;;;;;;;;5022906;28;20065;-63
2022/04/03 05:33:22;;;;;;;3.90;3.60;;;;;;;;;;5019034;28;20104;-63
2022/04/03 05:35:49;;;;;;;4.18;3.88;;;;;;;;;;5016178;28;20088;-63
2022/04/03 05:38:14;;;;;;;3.90;3.60;;;;;;;;;;5031074;28;20038;-63
2022/04/03 05:40:41;;;;;;;4.47;4.07;;;;;;;;;;5028998;28;20036;-63
2022/04/03 05:43:08;;;;;;;4.45;4.10;;;;;;;;;;5027732;28;20076;-63
2022/04/03 05:45:34;;;;;;;4.05;3.75;;;;;;;;;;5019989;28;20037;-63
2022/04/03 05:48:01;;;;;;;4.03;3.65;;;;;;;;;;5025739;28;20098;-64
2022/04/03 05:50:27;;;;;;;4.00;3.70;;;;;;;;;;5023932;28;20084;-64
2022/04/03 05:52:54;;;;;;;3.60;3.40;;;;;;;;;;5025503;28;20034;-64
2022/04/03 05:55:21;;;;;;;4.80;3.85;;;;;;;;;;5023456;28;20033;-64
2022/04/03 05:57:49;;;;;;;4.38;3.97;;;;;;;;;;5025143;28;20031;-63
2022/04/03 06:00:17;;;;;;;5.68;3.97;;;;;;;;;;5016905;28;20087;-64
2022/04/03 06:03:08;;;;;;;5.68;3.70;;;;;;;;;;5016633;28;20109;-63
2022/04/03 06:05:34;;;;;;;4.30;3.90;;;;;;;;;;5030395;28;20069;-63
2022/04/03 06:08:04;;;;;;;4.10;3.80;;;;;;;;;;5025626;28;20037;-63
2022/04/03 06:10:30;;;;;;;4.30;3.90;;;;;;;;;;5027982;28;20132;-63
2022/04/03 06:13:04;;;;;;;4.03;3.63;;;;;;;;;;5028962;28;20037;-64
2022/04/03 06:15:37;;;;;;;3.95;3.65;;;;;;;;;;5025717;28;20034;-64
2022/04/03 06:18:04;;;;;;;;;;;;;;;;;;5016302;28;20037;-63
2022/04/03 06:20:29;;;;;;;3.85;3.55;;;;;;;;;;5030171;28;19972;-63
2022/04/03 06:22:55;;;;;;;4.07;3.78;;;;;;;;;;5025590;28;20053;-64
2022/04/03 06:25:21;;;;;;;4.20;3.90;;;;;;;;;;5015114;28;20061;-64
2022/04/03 06:27:48;;;;;;;4.03;3.72;;;;;;;;;;5013908;28;20498;-63
2022/04/03 06:30:14;;;;;;;5.15;3.90;;;;;;;;;;5015996;28;20033;-64
2022/04/03 06:32:40;;;;;;;4.35;3.95;;;;;;;;;;5022274;28;20041;-64
2022/04/03 06:35:07;;;;;;;4.72;4.28;;;;;;;;;;5015919;28;20040;-64
2022/04/03 06:37:33;;;;;;;4.20;3.80;;;;;;;;;;5022438;28;20030;-63
2022/04/03 06:39:59;;;;;;;4.00;3.70;;;;;;;;;;5022822;28;20473;-63
2022/04/03 06:42:25;;;;;;;4.10;3.70;;;;;;;;;;5018630;28;20034;-64
2022/04/03 06:44:51;;;;;;;5.47;4.03;;;;;;;;;;5021234;28;20021;-64
2022/04/03 06:47:16;;;;;;;4.00;3.70;;;;;;;;;;5029546;28;20129;-64
2022/04/03 06:49:42;;;;;;;4.75;4.07;;;;;;;;;;5021824;28;20116;-64
2022/04/03 06:52:11;;;;;;;4.47;4.07;;;;;;;;;;5022695;28;20033;-64
2022/04/03 06:54:36;;;;;;;4.10;3.80;;;;;;;;;;5021527;28;20034;-64
2022/04/03 06:57:03;;;;;;;3.90;3.60;;;;;;;;;;5015087;28;20037;-64
2022/04/03 06:59:29;;;;;;;4.88;3.65;;;;;;;;;;5025799;28;20029;-64
2022/04/03 07:01:55;;;;;;;4.03;3.72;;;;;;;;;;5025280;28;20022;-64
2022/04/03 07:04:21;;;;;;;7.45;4.15;;;;;;;;;;5029387;28;20035;-64
2022/04/03 07:06:47;;;;;;;9.55;4.10;;;;;;;;;;5030275;28;20044;-64
2022/04/03 07:09:12;;;;;;;4.93;3.83;;;;;;;;;;5015102;28;20044;-64
2022/04/03 07:11:38;;;;;;;3.90;3.60;;;;;;;;;;5020585;28;20466;-64
2022/04/03 07:14:04;;;;;;;3.90;3.60;;;;;;;;;;5023359;28;20039;-64
2022/04/03 07:16:30;;;;;;;4.72;4.05;;;;;;;;;;5026172;28;20037;-63
2022/04/03 07:18:56;;;;;;;4.88;4.28;;;;;;;;;;5019781;28;20094;-64
2022/04/03 07:21:22;;;;;;;4.43;4.03;;;;;;;;;;5018043;28;20120;-64
2022/04/03 07:23:48;;;;;;;3.97;3.67;;;;;;;;;;5017366;28;20033;-64
2022/04/03 07:26:14;;;;;;;4.43;4.13;;;;;;;;;;5021265;28;20041;-64
2022/04/03 07:28:40;;;;;;;5.22;4.20;;;;;;;;;;5020375;28;20060;-64
2022/04/03 07:31:08;;;;;;;4.68;4.28;;;;;;;;;;5017532;28;20030;-64
2022/04/03 07:33:34;;;;;;;5.35;3.90;;;;;;;;;;5015834;28;20461;-64
2022/04/03 07:36:00;;;;;;;6.53;3.83;;;;;;;;;;5013893;28;20504;-64
2022/04/03 07:38:27;;;;;;;4.68;4.13;;;;;;;;;;5017809;28;20482;-64
2022/04/03 07:40:53;;;;;;;4.10;3.80;;;;;;;;;;5016524;28;20133;-64
2022/04/03 07:43:19;;;;;;;4.63;4.18;;;;;;;;;;5018016;28;20445;-64
2022/04/03 07:45:45;;;;;;;5.05;4.55;;;;;;;;;;5015477;28;20065;-64
2022/04/03 07:48:12;;;;;;;4.20;3.88;;;;;;;;;;5017319;28;20540;-64
2022/04/03 07:50:38;;;;;;;4.10;3.70;;;;;;;;;;5021169;28;20122;-64
2022/04/03 07:53:05;;;;;;;4.13;3.78;;;;;;;;;;5014753;28;20029;-64
2022/04/03 07:55:31;;;;;;;3.78;3.47;;;;;;;;;;5015552;28;20034;-64
2022/04/03 07:57:56;;;;;;;6.32;3.45;;;;;;;;;;5019802;28;20630;-64
2022/04/03 08:00:22;;;;;;;3.97;3.67;;;;;;;;;;5012372;28;20098;-64
2022/04/03 08:02:48;;;;;;;3.78;3.53;;;;;;;;;;5012679;28;20053;-64
2022/04/03 08:05:14;;;;;;;4.50;4.10;;;;;;;;;;5011359;28;20033;-64
2022/04/03 08:07:45;;;;;;;4.10;3.80;;;;;;;;;;5013167;28;20040;-64
2022/04/03 08:10:16;;;;;;;4.20;3.90;;;;;;;;;;5009236;28;20116;-64
2022/04/03 08:12:43;;;;;;;4.45;4.05;;;;;;;;;;5016870;28;20065;-64
2022/04/03 08:15:10;;;;;;;6.57;3.83;;;;;;;;;;5020985;28;20033;-64
2022/04/03 08:17:40;;;;;;;4.55;3.80;;;;;;;;;;5022100;28;20025;-64
2022/04/03 08:20:16;;;;;;;5.22;4.10;;;;;;;;;;5023191;28;20490;-64
2022/04/03 08:22:42;;;;;;;4.28;3.88;;;;;;;;;;5011540;28;20069;-64
2022/04/03 08:25:09;;;;;;;3.92;3.63;;;;;;;;;;5020997;28;20033;-64
2022/04/03 08:27:45;;;;;;;3.90;3.60;;;;;;;;;;5025157;28;20389;-64
2022/04/03 08:30:14;;;;;;;6.00;3.78;;;;;;;;;;5017568;28;20030;-64
2022/04/03 08:32:41;;;;;;;3.85;3.55;;;;;;;;;;5019532;28;20113;-64
2022/04/03 08:35:07;;;;;;;3.78;3.47;;;;;;;;;;5011538;28;20355;-64
2022/04/03 08:37:32;;;;;;;4.10;3.80;;;;;;;;;;5018784;28;20120;-64
2022/04/03 08:39:58;;;;;;;4.28;3.88;;;;;;;;;;5019500;28;20025;-64
2022/04/03 08:42:24;;;;;;;3.53;3.33;;;;;;;;;;5010288;28;20510;-64
2022/04/03 08:44:49;;;;;;;5.00;3.58;;;;;;;;;;5013420;28;20817;-63
2022/04/03 08:47:17;;;;;;;8.93;3.22;;;;;;;;;;5015276;28;20041;-64
2022/04/03 08:49:44;;;;;;;4.32;4.00;;;;;;;;;;5016174;28;20017;-64
2022/04/03 08:52:12;;;;;;;4.07;3.75;;;;;;;;;;5020602;28;20037;-64
2022/04/03 08:54:39;;;;;;;3.83;3.53;;;;;;;;;;5022854;28;20033;-64
2022/04/03 08:57:05;;;;;;;4.30;3.88;;;;;;;;;;5020443;28;20059;-64
2022/04/03 08:59:30;;;;;;;4.15;3.85;;;;;;;;;;5023874;28;20478;-64
2022/04/03 09:01:56;;;;;;;4.25;3.85;;;;;;;;;;5026225;28;20033;-64
2022/04/03 09:04:22;;;;;;;4.00;3.70;;;;;;;;;;5023842;28;20021;-64
2022/04/03 09:06:59;;;;;;;4.15;3.85;;;;;;;;;;5017132;28;20068;-64
2022/04/03 09:09:26;;;;;;;4.68;4.28;;;;;;;;;;5014097;28;20382;-64
2022/04/03 09:12:07;;;;;;;4.20;3.53;;;;;;;;;;5021494;28;20053;-64
2022/04/03 09:14:34;;;;;;;4.28;3.72;;;;;;;;;;5026540;28;20125;-64
2022/04/03 09:17:00;;;;;;;3.90;3.60;;;;;;;;;;5017923;28;20084;-65
2022/04/03 09:19:34;;;;;;;4.00;3.70;;;;;;;;;;5028090;28;20032;-64
2022/04/03 09:22:01;;;;;;;3.72;3.42;;;;;;;;;;5012473;28;20038;-64
2022/04/03 09:24:28;;;;;;;4.18;3.88;;;;;;;;;;5012746;28;20049;-63
2022/04/03 09:26:58;;;;;;;3.72;3.38;;;;;;;;;;5020991;28;20120;-64
2022/04/03 09:29:25;;;;;;;3.85;3.58;;;;;;;;;;5023255;28;20036;-63
2022/04/03 09:31:58;;;;;;;3.70;3.40;;;;;;;;;;5020540;28;20044;-63
2022/04/03 09:34:25;;;;;;;3.97;3.58;;;;;;;;;;5024620;28;20034;-64
2022/04/03 09:37:09;;;;;;;4.10;3.70;;;;;;;;;;5024032;28;20463;-64
2022/04/03 09:39:34;;;;;;;3.35;3.08;;;;;;;;;;5018279;28;20498;-64
2022/04/03 09:42:01;;;;;;;3.75;3.47;;;;;;;;;;5023843;28;20069;-64
2022/04/03 09:44:28;;;;;;;3.38;3.17;;;;;;;;;;5029068;28;20068;-65
2022/04/03 09:47:20;;;;;;;3.55;3.35;;;;;;;;;;5025152;28;20578;-64
2022/04/03 09:49:55;;;;;;;3.47;3.22;;;;;;;;;;5022633;28;20037;-64
2022/04/03 09:52:41;;;;;;;3.90;3.60;;;;;;;;;;5019757;28;20111;-64
2022/04/03 09:55:20;;;;;;;4.03;3.72;;;;;;;;;;5022818;28;20594;-64
2022/04/03 09:57:48;;;;;;;4.38;4.00;;;;;;;;;;5026649;28;20188;-65
2022/04/03 10:00:28;;;;;;;4.57;4.28;;;;;;;;;;5018228;28;20033;-65
2022/04/03 10:02:59;;;;;;;3.45;3.15;;;;;;;;;;5016166;28;20033;-63
2022/04/03 10:05:28;;;;;;;7.07;3.70;;;;;;;;;;5020120;28;20030;-64
2022/04/03 10:07:58;;;;;;;4.45;4.05;;;;;;;;;;5014690;28;20272;-65
2022/04/03 10:10:23;;;;;;;4.13;3.70;;;;;;;;;;5026811;28;20166;-65
2022/04/03 10:12:49;;;;;;;3.95;3.58;;;;;;;;;;5026987;28;20541;-65
2022/04/03 10:15:15;;;;;;;5.43;3.47;;;;;;;;;;5019224;28;20104;-65
2022/04/03 10:17:41;;;;;;;6.03;4.05;;;;;;;;;;5018076;28;20087;-65
2022/04/03 10:20:09;;;;;;;4.07;3.67;;;;;;;;;;5030009;28;20067;-64
2022/04/03 10:22:39;;;;;;;3.72;3.42;;;;;;;;;;5014987;28;20029;-65
2022/04/03 10:25:07;;;;;;;4.90;4.35;;;;;;;;;;5017190;28;20022;-64
2022/04/03 10:27:37;;;;;;;4.07;3.67;;;;;;;;;;5020484;28;20045;-64
2022/04/03 10:30:05;;;;;;;4.32;3.92;;;;;;;;;;5017627;28;20044;-65
2022/04/03 10:32:33;;;;;;;4.53;4.20;;;;;;;;;;5020285;28;20033;-64
2022/04/03 10:35:03;;;;;;;5.00;4.60;;;;;;;;;;5018326;28;20722;-65
2022/04/03 10:37:36;;;;;;;3.63;3.28;;;;;;;;;;5018594;28;20049;-65
2022/04/03 10:40:03;;;;;;;3.83;3.53;;;;;;;;;;5018709;28;20045;-65
2022/04/03 10:42:30;;;;;;;4.25;3.92;;;;;;;;;;5021624;28;20030;-66
2022/04/03 10:45:10;;;;;;;4.57;4.18;;;;;;;;;;5016894;28;20029;-66
2022/04/03 10:47:40;;;;;;;4.32;4.03;;;;;;;;;;5019634;28;20033;-66
2022/04/03 10:50:07;;;;;;;6.28;4.78;;;;;;;;;;5013505;28;20053;-66
2022/04/03 10:52:36;;;;;;;3.95;3.70;;;;;;;;;;5026299;28;20030;-65
2022/04/03 10:55:20;;;;;;;4.15;3.85;;;;;;;;;;5020489;28;20091;-66
2022/04/03 10:57:50;;;;;;;4.47;4.07;;;;;;;;;;5015411;28;20112;-66
2022/04/03 11:00:16;;;;;;;3.85;3.55;;;;;;;;;;5023626;28;20045;-66
2022/04/03 11:03:01;;;;;;;3.88;3.58;;;;;;;;;;5029002;28;20141;-66
2022/04/03 11:05:27;;;;;;;4.22;3.90;;;;;;;;;;5019120;28;20030;-65
2022/04/03 11:07:53;;;;;;;4.20;3.67;;;;;;;;;;5015476;28;20071;-66
2022/04/03 11:11:00;;;;;;;4.20;3.90;;;;;;;;;;5019515;28;20037;-66
2022/04/03 11:13:26;;;;;;;4.72;3.67;;;;;;;;;;5020676;28;20505;-65
2022/04/03 11:15:54;;;;;;;3.95;3.65;;;;;;;;;;5017931;28;20033;-65
2022/04/03 11:18:33;;;;;;;3.90;3.60;;;;;;;;;;5019091;28;20386;-66
2022/04/03 11:21:11;;;;;;;4.00;3.70;;;;;;;;;;5014203;28;20038;-66
2022/04/03 11:23:40;;;;;;;3.92;3.63;;;;;;;;;;5026298;28;20034;-66
2022/04/03 11:26:06;;;;;;;3.67;3.47;;;;;;;;;;5022037;28;20488;-67
2022/04/03 11:28:36;;;;;;;6.78;4.20;;;;;;;;;;5014019;28;20119;-66
2022/04/03 11:31:03;;;;;;;4.35;3.92;;;;;;;;;;5022209;28;20018;-66
2022/04/03 11:33:31;;;;;;;4.10;3.80;;;;;;;;;;5018250;28;20025;-66
2022/04/03 11:36:10;;;;;;;3.90;3.60;;;;;;;;;;5016355;28;20061;-66
2022/04/03 11:38:41;;;;;;;3.63;3.33;;;;;;;;;;5019498;28;20375;-66
2022/04/03 11:41:15;;;;;;;3.80;3.50;;;;;;;;;;5016136;28;20033;-67
2022/04/03 11:43:42;;;;;;;3.75;3.45;;;;;;;;;;5012547;28;20478;-66
2022/04/03 11:46:09;;;;;;;3.50;3.20;;;;;;;;;;5016082;28;20083;-66
2022/04/03 11:48:45;;;;;;;3.80;3.50;;;;;;;;;;5015922;28;20033;-66
2022/04/03 11:51:20;;;;;;;4.25;3.85;;;;;;;;;;5013193;28;20060;-66
2022/04/03 11:54:06;;;;;;;4.47;4.03;;;;;;;;;;5020528;28;20104;-66
2022/04/03 11:56:35;;;;;;;4.10;3.80;;;;;;;;;;5024387;28;20029;-66
2022/04/03 11:59:03;;;;;;;4.80;4.13;;;;;;;;;;5024602;28;20478;-67
2022/04/03 12:01:33;;;;;;;4.10;3.80;;;;;;;;;;5026850;28;20021;-67
2022/04/03 12:04:19;;;;;;;3.50;3.22;;;;;;;;;;5020097;28;20033;-66
2022/04/03 12:06:47;;;;;;;3.90;3.60;;;;;;;;;;5019809;28;20034;-68
2022/04/03 12:09:16;;;;;;;3.40;3.20;;;;;;;;;;5013560;28;20036;-67
2022/04/03 12:11:48;;;;;;;4.97;3.60;;;;;;;;;;5016197;28;20037;-67
2022/04/03 12:14:31;;;;;;;4.57;4.18;;;;;;;;;;5025807;28;20068;-67
2022/04/03 12:17:18;;;;;;;4.97;4.40;;;;;;;;;;5018903;28;20046;-67
2022/04/03 12:19:50;;;;;;;7.15;4.40;;;;;;;;;;5018045;28;20096;-67
2022/04/03 12:22:18;;;;;;;3.65;3.40;;;;;;;;;;5022838;28;20030;-67
2022/04/03 12:24:45;;;;;;;4.88;3.70;;;;;;;;;;5020357;28;20040;-67
2022/04/03 12:27:14;;;;;;;4.22;3.83;;;;;;;;;;5018621;28;20491;-67
2022/04/03 12:29:44;;;;;;;4.70;4.13;;;;;;;;;;5025090;28;20565;-67
2022/04/03 12:32:13;;;;;;;3.85;3.55;;;;;;;;;;5027134;28;20037;-67
2022/04/03 12:34:43;;;;;;;6.22;4.18;;;;;;;;;;5026458;28;20032;-68
2022/04/03 12:37:12;;;;;;;4.70;4.35;;;;;;;;;;5022465;28;20072;-67
2022/04/03 12:39:50;;;;;;;3.78;3.47;;;;;;;;;;5023017;28;20038;-67
2022/04/03 12:42:22;;;;;;;4.93;4.00;;;;;;;;;;5024326;28;20563;-67
2022/04/03 12:44:48;;;;;;;;;;;;;;;;;;5021143;28;20052;-67
2022/04/03 12:47:28;;;;;;;3.80;3.50;;;;;;;;;;5022016;28;19917;-67
2022/04/03 12:50:02;;;;;;;3.92;3.63;;;;;;;;;;5022550;28;20034;-66
2022/04/03 12:52:41;;;;;;;4.32;3.90;;;;;;;;;;5019927;28;20033;-67
2022/04/03 12:55:28;;;;;;;3.88;3.58;;;;;;;;;;5023404;28;20038;-67
2022/04/03 13:00:54;;;;;;;4.75;3.97;;;;;;;;;;5020707;28;20061;-67
2022/04/03 13:03:39;;;;;;;4.07;3.78;;;;;;;;;;5018460;28;20033;-67
2022/04/03 13:06:11;;;;;;;4.00;3.63;;;;;;;;;;5016937;28;20049;-66
2022/04/03 13:08:59;;;;;;;3.75;3.45;;;;;;;;;;5027707;28;20033;-66
2022/04/03 13:11:30;;;;;;;5.70;4.10;;;;;;;;;;5025527;28;20041;-66
2022/04/03 13:14:35;;;;;;;4.35;3.60;;;;;;;;;;5018087;28;20030;-65
2022/04/03 13:17:05;;;;;;;4.00;3.40;;;;;;;;;;5016501;28;20045;-66
2022/04/03 13:19:33;;;;;;;4.15;3.20;;;;;;;;;;5022367;28;20029;-66
2022/04/03 13:22:00;;;;;;;3.50;3.20;;;;;;;;;;5020954;28;20112;-66
2022/04/03 13:24:27;;;;;;;5.38;3.30;;;;;;;;;;5019845;28;20026;-66
2022/04/03 13:26:55;;;;;;;3.80;3.40;;;;;;;;;;5025907;28;20070;-67
2022/04/03 13:29:21;;;;;;;3.72;3.45;;;;;;;;;;5028666;28;20036;-66
2022/04/03 13:31:47;;;;;;;4.30;3.63;;;;;;;;;;5027490;28;20080;-66
2022/04/03 13:34:13;;;;;;;3.15;2.95;;;;;;;;;;5020615;28;20131;-66
2022/04/03 13:36:39;;;;;;;3.40;3.20;;;;;;;;;;5013477;28;20155;-65
2022/04/03 13:39:08;;;;;;;3.28;3.08;;;;;;;;;;5017690;28;20049;-66
2022/04/03 13:41:37;;;;;;;4.78;3.55;;;;;;;;;;5022335;28;20398;-65
2022/04/03 13:44:03;;;;;;;4.28;3.90;;;;;;;;;;5021250;28;20116;-66
2022/04/03 13:46:29;;;;;;;3.90;3.60;;;;;;;;;;5028035;28;20481;-66
2022/04/03 13:48:54;;;;;;;3.75;3.45;;;;;;;;;;5021634;28;20044;-66
2022/04/03 13:51:20;;;;;;;3.40;3.17;;;;;;;;;;5012816;28;20532;-67
2022/04/03 13:53:46;;;;;;;3.85;3.55;;;;;;;;;;5026868;28;20548;-66
2022/04/03 13:56:13;;;;;;;6.47;3.47;;;;;;;;;;5025179;28;20044;-66
2022/04/03 13:58:39;;;;;;;3.90;3.60;;;;;;;;;;5015345;28;20471;-65
2022/04/03 14:01:06;;;;;;;5.85;3.40;;;;;;;;;;5017751;28;20034;-65
2022/04/03 14:03:33;;;;;;;3.20;3.00;;;;;;;;;;5018955;28;20174;-65
2022/04/03 14:06:00;;;;;;;3.85;3.55;;;;;;;;;;5016923;28;20034;-66
2022/04/03 14:08:27;;;;;;;4.20;3.83;;;;;;;;;;5021520;28;20037;-66
2022/04/03 14:10:55;;;;;;;4.07;3.78;;;;;;;;;;5016962;28;20393;-66
2022/04/03 14:13:27;;;;;;;3.60;3.30;;;;;;;;;;5015898;28;20513;-66
2022/04/03 14:16:12;;;;;;;4.25;3.22;;;;;;;;;;5017657;28;20047;-67
2022/04/03 14:18:38;;;;;;;3.72;3.40;;;;;;;;;;5018631;28;20049;-66
2022/04/03 14:21:05;;;;;;;3.72;3.40;;;;;;;;;;5017114;28;20042;-67
2022/04/03 14:23:36;;;;;;;3.80;3.50;;;;;;;;;;5022043;28;20041;-66
2022/04/03 14:26:04;;;;;;;4.20;3.90;;;;;;;;;;5015775;28;20033;-66
2022/04/03 14:28:31;;;;;;;3.83;3.53;;;;;;;;;;5017808;28;20157;-67
2022/04/03 14:30:57;;;;;;;4.28;3.88;;;;;;;;;;5019790;28;20675;-66
2022/04/03 14:33:23;;;;;;;4.80;4.40;;;;;;;;;;5014273;28;20049;-67
2022/04/03 14:35:49;;;;;;;4.13;3.78;;;;;;;;;;5022963;28;20033;-66
2022/04/03 14:38:15;;;;;;;4.65;4.15;;;;;;;;;;5018010;28;20041;-66
2022/04/03 14:40:41;;;;;;;5.20;4.30;;;;;;;;;;5022650;28;20029;-66
2022/04/03 14:43:07;;;;;;;4.78;4.25;;;;;;;;;;5019510;28;20030;-67
2022/04/03 14:45:32;;;;;;;8.40;4.43;;;;;;;;;;5024395;28;20040;-67
2022/04/03 14:47:58;;;;;;;4.63;4.00;;;;;;;;;;5025424;28;20065;-66
2022/04/03 14:50:24;;;;;;;3.88;3.58;;;;;;;;;;5021253;28;20040;-67
2022/04/03 14:52:50;;;;;;;4.20;3.90;;;;;;;;;;5018675;28;20080;-67